Meteorológiai információk azoknak akik tudják olvasni.

METAR = LHBP 190800Z VRB02KT 9999 SCT046 BKN120 M02/M02 Q1022 NOSIG

9 órás TAF = TAF TAF LHBP 242330Z 2423/2424 30008KT CAVOK BECMG 2506/2509 24010KT OVC030 TEMPO 2509/2515 24015G25KT 8000 -RA BKN013 OVC025 BECMG 2515/2518 30008KT CAVOK

24 órás TAF = TAF TAF LHBP 190515Z 1906/2006 35005KT CAVOK BECMG 1906/1908 08008KT TEMPO 1906/1908 SCT040 TEMPO 1920/1924 4000 -SN SCT025 BKN050

ÁLLOMÁS.................... LHBP
ÉSZLELÉS................... Sat Jan 19, 09:00 CET
MOST....................... Sat Jan 19, 09:02 CET
IDŐ........................ 2 perccel ezelőtt
SZÉL....................... változó irányból 2 csomó
LÁTÁSTÁVOLSÁG.............. 6 mérföld
FELHŐZET................... erősen felhős
HŐMÉRSÉKLET................ 28°F (-2°C)
HARMATPONT................. 28°F (-2°C)
PÁRATARTALOM............... 100%
LÉGNYOMÁS.................. 1022 hPa (30.18 in Hg)

További információ LHBP állomásról

Meteor információ kérése:        állomásról.    

 

www.tothgeza.hu

 

English version
Copyright © 2003-2019 Tóth Géza Minden jog fenntartva.